sensor_id;sensor_type;location;lat;lon;timestamp;P1;durP1;ratioP1;P2;durP2;ratioP2
23720;SDS011;42950;52.134;5.578;2023-04-25T00:01:34;23.23;;;4.97;;
23720;SDS011;42950;52.134;5.578;2023-04-25T00:04:01;13.20;;;4.20;;
23720;SDS011;42950;52.134;5.578;2023-04-25T00:06:27;16.02;;;4.43;;
23720;SDS011;42950;52.134;5.578;2023-04-25T00:08:54;19.15;;;4.70;;
23720;SDS011;42950;52.134;5.578;2023-04-25T00:11:21;21.85;;;4.85;;
23720;SDS011;42950;52.134;5.578;2023-04-25T00:13:47;18.80;;;4.68;;
23720;SDS011;42950;52.134;5.578;2023-04-25T00:16:13;17.38;;;4.90;;
23720;SDS011;42950;52.134;5.578;2023-04-25T00:18:41;21.08;;;4.72;;
23720;SDS011;42950;52.134;5.578;2023-04-25T00:21:07;19.70;;;4.75;;
23720;SDS011;42950;52.134;5.578;2023-04-25T00:23:33;22.33;;;5.28;;
23720;SDS011;42950;52.134;5.578;2023-04-25T00:26:00;19.90;;;5.25;;
23720;SDS011;42950;52.134;5.578;2023-04-25T00:28:26;16.83;;;4.47;;
23720;SDS011;42950;52.134;5.578;2023-04-25T00:30:51;20.60;;;5.22;;
23720;SDS011;42950;52.134;5.578;2023-04-25T00:33:17;17.20;;;4.82;;
23720;SDS011;42950;52.134;5.578;2023-04-25T00:35:42;26.70;;;5.47;;
23720;SDS011;42950;52.134;5.578;2023-04-25T00:38:08;20.17;;;4.53;;
23720;SDS011;42950;52.134;5.578;2023-04-25T00:40:33;19.45;;;5.15;;
23720;SDS011;42950;52.134;5.578;2023-04-25T00:42:59;16.27;;;4.72;;
23720;SDS011;42950;52.134;5.578;2023-04-25T00:45:28;26.45;;;5.03;;
23720;SDS011;42950;52.134;5.578;2023-04-25T00:47:55;17.67;;;4.30;;
23720;SDS011;42950;52.134;5.578;2023-04-25T00:50:21;26.58;;;5.28;;
23720;SDS011;42950;52.134;5.578;2023-04-25T00:52:47;28.42;;;4.88;;
23720;SDS011;42950;52.134;5.578;2023-04-25T00:55:13;22.75;;;4.85;;
23720;SDS011;42950;52.134;5.578;2023-04-25T00:57:38;18.08;;;4.75;;
23720;SDS011;42950;52.134;5.578;2023-04-25T01:00:05;19.20;;;4.53;;
23720;SDS011;42950;52.134;5.578;2023-04-25T01:02:32;17.90;;;4.93;;
23720;SDS011;42950;52.134;5.578;2023-04-25T01:04:58;18.88;;;5.03;;
23720;SDS011;42950;52.134;5.578;2023-04-25T01:07:23;19.52;;;4.32;;
23720;SDS011;42950;52.134;5.578;2023-04-25T01:09:51;15.95;;;5.30;;
23720;SDS011;42950;52.134;5.578;2023-04-25T01:12:16;18.58;;;4.45;;
23720;SDS011;42950;52.134;5.578;2023-04-25T01:14:42;17.33;;;5.10;;
23720;SDS011;42950;52.134;5.578;2023-04-25T01:17:08;22.25;;;5.28;;
23720;SDS011;42950;52.134;5.578;2023-04-25T01:19:34;16.45;;;4.90;;
23720;SDS011;42950;52.134;5.578;2023-04-25T01:22:00;22.73;;;5.30;;
23720;SDS011;42950;52.134;5.578;2023-04-25T01:24:26;16.27;;;5.05;;
23720;SDS011;42950;52.134;5.578;2023-04-25T01:26:52;20.98;;;5.18;;
23720;SDS011;42950;52.134;5.578;2023-04-25T01:29:21;18.08;;;4.65;;
23720;SDS011;42950;52.134;5.578;2023-04-25T01:31:46;23.75;;;5.20;;
23720;SDS011;42950;52.134;5.578;2023-04-25T01:34:12;18.20;;;5.10;;
23720;SDS011;42950;52.134;5.578;2023-04-25T01:36:38;13.80;;;4.70;;
23720;SDS011;42950;52.134;5.578;2023-04-25T01:39:05;23.52;;;4.72;;
23720;SDS011;42950;52.134;5.578;2023-04-25T01:41:31;23.13;;;4.88;;
23720;SDS011;42950;52.134;5.578;2023-04-25T01:43:57;18.52;;;5.05;;
23720;SDS011;42950;52.134;5.578;2023-04-25T01:46:22;20.20;;;4.88;;
23720;SDS011;42950;52.134;5.578;2023-04-25T01:48:48;21.35;;;4.68;;
23720;SDS011;42950;52.134;5.578;2023-04-25T01:51:14;21.35;;;5.03;;
23720;SDS011;42950;52.134;5.578;2023-04-25T01:53:40;16.98;;;4.47;;
23720;SDS011;42950;52.134;5.578;2023-04-25T01:56:06;14.30;;;4.60;;
23720;SDS011;42950;52.134;5.578;2023-04-25T01:58:32;16.73;;;4.57;;
23720;SDS011;42950;52.134;5.578;2023-04-25T02:00:57;16.73;;;4.40;;
23720;SDS011;42950;52.134;5.578;2023-04-25T02:03:23;17.42;;;4.07;;
23720;SDS011;42950;52.134;5.578;2023-04-25T02:05:48;22.08;;;4.72;;
23720;SDS011;42950;52.134;5.578;2023-04-25T02:08:15;18.13;;;4.55;;
23720;SDS011;42950;52.134;5.578;2023-04-25T02:10:41;20.80;;;4.75;;
23720;SDS011;42950;52.134;5.578;2023-04-25T02:13:07;19.60;;;4.50;;
23720;SDS011;42950;52.134;5.578;2023-04-25T02:15:33;15.25;;;4.18;;
23720;SDS011;42950;52.134;5.578;2023-04-25T02:17:58;16.60;;;4.25;;
23720;SDS011;42950;52.134;5.578;2023-04-25T02:20:25;17.25;;;4.57;;
23720;SDS011;42950;52.134;5.578;2023-04-25T02:22:51;16.95;;;4.47;;
23720;SDS011;42950;52.134;5.578;2023-04-25T02:25:18;12.15;;;4.10;;
23720;SDS011;42950;52.134;5.578;2023-04-25T02:27:45;17.50;;;4.63;;
23720;SDS011;42950;52.134;5.578;2023-04-25T02:30:11;12.55;;;3.88;;
23720;SDS011;42950;52.134;5.578;2023-04-25T02:32:37;19.83;;;4.40;;
23720;SDS011;42950;52.134;5.578;2023-04-25T02:35:04;14.25;;;4.57;;
23720;SDS011;42950;52.134;5.578;2023-04-25T02:37:30;17.02;;;4.38;;
23720;SDS011;42950;52.134;5.578;2023-04-25T02:39:56;15.18;;;4.35;;
23720;SDS011;42950;52.134;5.578;2023-04-25T02:42:22;20.38;;;5.05;;
23720;SDS011;42950;52.134;5.578;2023-04-25T02:44:47;18.80;;;4.82;;
23720;SDS011;42950;52.134;5.578;2023-04-25T02:47:13;21.77;;;4.63;;
23720;SDS011;42950;52.134;5.578;2023-04-25T02:49:39;15.45;;;4.72;;
23720;SDS011;42950;52.134;5.578;2023-04-25T02:52:05;12.70;;;4.43;;
23720;SDS011;42950;52.134;5.578;2023-04-25T02:54:31;9.90;;;3.65;;
23720;SDS011;42950;52.134;5.578;2023-04-25T02:56:56;19.20;;;5.03;;
23720;SDS011;42950;52.134;5.578;2023-04-25T02:59:22;17.13;;;4.93;;
23720;SDS011;42950;52.134;5.578;2023-04-25T03:01:47;18.52;;;4.95;;
23720;SDS011;42950;52.134;5.578;2023-04-25T03:04:13;17.35;;;4.75;;
23720;SDS011;42950;52.134;5.578;2023-04-25T03:06:39;12.30;;;4.53;;
23720;SDS011;42950;52.134;5.578;2023-04-25T03:09:04;14.15;;;4.35;;
23720;SDS011;42950;52.134;5.578;2023-04-25T03:11:30;14.25;;;4.15;;
23720;SDS011;42950;52.134;5.578;2023-04-25T03:13:56;13.88;;;4.40;;
23720;SDS011;42950;52.134;5.578;2023-04-25T03:16:21;14.80;;;4.72;;
23720;SDS011;42950;52.134;5.578;2023-04-25T03:18:47;13.15;;;4.35;;
23720;SDS011;42950;52.134;5.578;2023-04-25T03:21:14;11.18;;;4.10;;
23720;SDS011;42950;52.134;5.578;2023-04-25T03:23:40;15.45;;;4.50;;
23720;SDS011;42950;52.134;5.578;2023-04-25T03:26:05;19.85;;;5.53;;
23720;SDS011;42950;52.134;5.578;2023-04-25T03:28:31;20.80;;;4.85;;
23720;SDS011;42950;52.134;5.578;2023-04-25T03:30:57;15.60;;;4.80;;
23720;SDS011;42950;52.134;5.578;2023-04-25T03:33:22;14.50;;;4.22;;
23720;SDS011;42950;52.134;5.578;2023-04-25T03:35:48;16.77;;;4.88;;
23720;SDS011;42950;52.134;5.578;2023-04-25T03:38:14;16.88;;;4.85;;
23720;SDS011;42950;52.134;5.578;2023-04-25T03:40:40;16.17;;;4.32;;
23720;SDS011;42950;52.134;5.578;2023-04-25T03:43:06;15.88;;;4.85;;
23720;SDS011;42950;52.134;5.578;2023-04-25T03:45:32;14.65;;;4.50;;
23720;SDS011;42950;52.134;5.578;2023-04-25T03:47:57;16.73;;;5.05;;
23720;SDS011;42950;52.134;5.578;2023-04-25T03:50:23;15.95;;;4.93;;
23720;SDS011;42950;52.134;5.578;2023-04-25T03:52:48;23.73;;;8.48;;
23720;SDS011;42950;52.134;5.578;2023-04-25T03:55:14;27.20;;;9.65;;
23720;SDS011;42950;52.134;5.578;2023-04-25T03:57:40;30.90;;;11.48;;
23720;SDS011;42950;52.134;5.578;2023-04-25T04:00:06;35.67;;;13.07;;
23720;SDS011;42950;52.134;5.578;2023-04-25T04:02:32;30.90;;;12.80;;
23720;SDS011;42950;52.134;5.578;2023-04-25T04:04:59;33.42;;;13.32;;
23720;SDS011;42950;52.134;5.578;2023-04-25T04:07:25;23.65;;;8.73;;
23720;SDS011;42950;52.134;5.578;2023-04-25T04:09:51;17.27;;;4.85;;
23720;SDS011;42950;52.134;5.578;2023-04-25T04:12:16;15.60;;;4.72;;
23720;SDS011;42950;52.134;5.578;2023-04-25T04:14:42;16.05;;;4.65;;
23720;SDS011;42950;52.134;5.578;2023-04-25T04:17:07;16.40;;;4.57;;
23720;SDS011;42950;52.134;5.578;2023-04-25T04:19:33;17.70;;;4.05;;
23720;SDS011;42950;52.134;5.578;2023-04-25T04:21:58;16.58;;;4.25;;
23720;SDS011;42950;52.134;5.578;2023-04-25T04:24:24;14.10;;;3.75;;
23720;SDS011;42950;52.134;5.578;2023-04-25T04:26:49;20.70;;;4.55;;
23720;SDS011;42950;52.134;5.578;2023-04-25T04:29:15;20.70;;;4.63;;
23720;SDS011;42950;52.134;5.578;2023-04-25T04:31:47;15.60;;;4.18;;
23720;SDS011;42950;52.134;5.578;2023-04-25T04:34:13;13.15;;;4.00;;
23720;SDS011;42950;52.134;5.578;2023-04-25T04:36:38;19.33;;;4.30;;
23720;SDS011;42950;52.134;5.578;2023-04-25T04:39:05;15.52;;;3.72;;
23720;SDS011;42950;52.134;5.578;2023-04-25T04:41:31;19.67;;;4.18;;
23720;SDS011;42950;52.134;5.578;2023-04-25T04:43:57;18.13;;;3.63;;
23720;SDS011;42950;52.134;5.578;2023-04-25T04:46:22;16.25;;;3.35;;
23720;SDS011;42950;52.134;5.578;2023-04-25T04:48:49;13.88;;;3.50;;
23720;SDS011;42950;52.134;5.578;2023-04-25T04:51:15;14.20;;;3.72;;
23720;SDS011;42950;52.134;5.578;2023-04-25T04:53:40;14.77;;;3.40;;
23720;SDS011;42950;52.134;5.578;2023-04-25T04:56:06;15.52;;;3.22;;
23720;SDS011;42950;52.134;5.578;2023-04-25T04:58:31;11.82;;;3.60;;
23720;SDS011;42950;52.134;5.578;2023-04-25T05:00:57;12.48;;;3.17;;
23720;SDS011;42950;52.134;5.578;2023-04-25T05:03:22;10.10;;;2.85;;
23720;SDS011;42950;52.134;5.578;2023-04-25T05:05:51;9.80;;;2.83;;
23720;SDS011;42950;52.134;5.578;2023-04-25T05:08:17;11.70;;;3.13;;
23720;SDS011;42950;52.134;5.578;2023-04-25T05:10:42;12.05;;;3.00;;
23720;SDS011;42950;52.134;5.578;2023-04-25T05:13:08;10.68;;;2.88;;
23720;SDS011;42950;52.134;5.578;2023-04-25T05:15:33;11.05;;;3.03;;
23720;SDS011;42950;52.134;5.578;2023-04-25T05:18:00;13.85;;;2.85;;
23720;SDS011;42950;52.134;5.578;2023-04-25T05:20:26;8.85;;;2.30;;
23720;SDS011;42950;52.134;5.578;2023-04-25T05:22:51;11.77;;;3.03;;
23720;SDS011;42950;52.134;5.578;2023-04-25T05:25:17;10.65;;;2.42;;
23720;SDS011;42950;52.134;5.578;2023-04-25T05:27:43;13.07;;;2.58;;
23720;SDS011;42950;52.134;5.578;2023-04-25T05:30:08;7.70;;;2.65;;
23720;SDS011;42950;52.134;5.578;2023-04-25T05:32:34;7.30;;;2.30;;
23720;SDS011;42950;52.134;5.578;2023-04-25T05:35:00;14.80;;;2.70;;
23720;SDS011;42950;52.134;5.578;2023-04-25T05:37:26;10.55;;;2.67;;
23720;SDS011;42950;52.134;5.578;2023-04-25T05:39:52;12.30;;;2.38;;
23720;SDS011;42950;52.134;5.578;2023-04-25T05:42:18;9.32;;;2.65;;
23720;SDS011;42950;52.134;5.578;2023-04-25T05:44:44;9.30;;;2.38;;
23720;SDS011;42950;52.134;5.578;2023-04-25T05:47:09;6.65;;;2.35;;
23720;SDS011;42950;52.134;5.578;2023-04-25T05:49:35;9.18;;;2.45;;
23720;SDS011;42950;52.134;5.578;2023-04-25T05:52:00;7.40;;;2.22;;
23720;SDS011;42950;52.134;5.578;2023-04-25T05:54:26;12.77;;;2.17;;
23720;SDS011;42950;52.134;5.578;2023-04-25T05:56:51;7.93;;;1.95;;
23720;SDS011;42950;52.134;5.578;2023-04-25T05:59:20;13.95;;;2.28;;
23720;SDS011;42950;52.134;5.578;2023-04-25T06:01:46;9.45;;;2.42;;
23720;SDS011;42950;52.134;5.578;2023-04-25T06:04:12;10.10;;;2.47;;
23720;SDS011;42950;52.134;5.578;2023-04-25T06:06:37;10.90;;;2.35;;
23720;SDS011;42950;52.134;5.578;2023-04-25T06:09:03;11.35;;;2.72;;
23720;SDS011;42950;52.134;5.578;2023-04-25T06:11:28;8.27;;;2.22;;
23720;SDS011;42950;52.134;5.578;2023-04-25T06:13:54;8.60;;;2.45;;
23720;SDS011;42950;52.134;5.578;2023-04-25T06:16:20;8.25;;;2.58;;
23720;SDS011;42950;52.134;5.578;2023-04-25T06:18:45;10.02;;;2.60;;
23720;SDS011;42950;52.134;5.578;2023-04-25T06:21:11;13.02;;;2.72;;
23720;SDS011;42950;52.134;5.578;2023-04-25T06:23:37;9.90;;;2.40;;
23720;SDS011;42950;52.134;5.578;2023-04-25T06:26:02;8.88;;;2.53;;
23720;SDS011;42950;52.134;5.578;2023-04-25T06:28:28;9.90;;;2.47;;
23720;SDS011;42950;52.134;5.578;2023-04-25T06:30:53;12.95;;;2.60;;
23720;SDS011;42950;52.134;5.578;2023-04-25T06:33:19;9.85;;;2.40;;
23720;SDS011;42950;52.134;5.578;2023-04-25T06:35:46;12.55;;;2.50;;
23720;SDS011;42950;52.134;5.578;2023-04-25T06:38:11;10.02;;;2.40;;
23720;SDS011;42950;52.134;5.578;2023-04-25T06:40:37;12.15;;;2.42;;
23720;SDS011;42950;52.134;5.578;2023-04-25T06:43:03;9.70;;;2.50;;
23720;SDS011;42950;52.134;5.578;2023-04-25T06:45:29;12.30;;;2.53;;
23720;SDS011;42950;52.134;5.578;2023-04-25T06:47:55;9.70;;;2.80;;
23720;SDS011;42950;52.134;5.578;2023-04-25T06:50:20;9.98;;;2.70;;
23720;SDS011;42950;52.134;5.578;2023-04-25T06:52:46;11.93;;;2.47;;
23720;SDS011;42950;52.134;5.578;2023-04-25T06:55:12;8.48;;;2.22;;
23720;SDS011;42950;52.134;5.578;2023-04-25T06:57:37;9.38;;;2.47;;
23720;SDS011;42950;52.134;5.578;2023-04-25T07:00:03;9.35;;;2.50;;
23720;SDS011;42950;52.134;5.578;2023-04-25T07:02:34;13.38;;;2.42;;
23720;SDS011;42950;52.134;5.578;2023-04-25T07:05:00;13.48;;;2.40;;
23720;SDS011;42950;52.134;5.578;2023-04-25T07:07:29;10.05;;;2.40;;
23720;SDS011;42950;52.134;5.578;2023-04-25T07:09:55;14.63;;;1.80;;
23720;SDS011;42950;52.134;5.578;2023-04-25T07:12:21;10.18;;;1.90;;
23720;SDS011;42950;52.134;5.578;2023-04-25T07:14:47;12.57;;;2.28;;
23720;SDS011;42950;52.134;5.578;2023-04-25T07:17:12;10.77;;;2.33;;
23720;SDS011;42950;52.134;5.578;2023-04-25T07:19:38;9.63;;;2.03;;
23720;SDS011;42950;52.134;5.578;2023-04-25T07:22:05;11.35;;;2.20;;
23720;SDS011;42950;52.134;5.578;2023-04-25T07:24:31;15.13;;;2.75;;
23720;SDS011;42950;52.134;5.578;2023-04-25T07:26:57;10.43;;;2.63;;
23720;SDS011;42950;52.134;5.578;2023-04-25T07:29:22;9.73;;;2.17;;
23720;SDS011;42950;52.134;5.578;2023-04-25T07:31:48;12.38;;;2.53;;
23720;SDS011;42950;52.134;5.578;2023-04-25T07:34:14;10.93;;;2.22;;
23720;SDS011;42950;52.134;5.578;2023-04-25T07:36:40;15.25;;;2.33;;
23720;SDS011;42950;52.134;5.578;2023-04-25T07:39:06;7.72;;;1.90;;
23720;SDS011;42950;52.134;5.578;2023-04-25T07:41:33;9.98;;;2.20;;
23720;SDS011;42950;52.134;5.578;2023-04-25T07:43:59;8.30;;;1.60;;
23720;SDS011;42950;52.134;5.578;2023-04-25T07:46:25;11.05;;;2.00;;
23720;SDS011;42950;52.134;5.578;2023-04-25T07:48:51;9.75;;;1.77;;
23720;SDS011;42950;52.134;5.578;2023-04-25T07:51:16;9.80;;;1.92;;
23720;SDS011;42950;52.134;5.578;2023-04-25T07:53:44;12.00;;;2.00;;
23720;SDS011;42950;52.134;5.578;2023-04-25T07:56:10;12.15;;;1.70;;
23720;SDS011;42950;52.134;5.578;2023-04-25T07:58:36;12.63;;;1.70;;
23720;SDS011;42950;52.134;5.578;2023-04-25T08:01:02;9.52;;;1.90;;
23720;SDS011;42950;52.134;5.578;2023-04-25T08:03:27;7.88;;;1.85;;
23720;SDS011;42950;52.134;5.578;2023-04-25T08:05:53;8.23;;;1.90;;
23720;SDS011;42950;52.134;5.578;2023-04-25T08:08:18;10.15;;;1.63;;
23720;SDS011;42950;52.134;5.578;2023-04-25T08:10:44;10.52;;;1.60;;
23720;SDS011;42950;52.134;5.578;2023-04-25T08:13:10;10.75;;;1.90;;
23720;SDS011;42950;52.134;5.578;2023-04-25T08:15:35;15.55;;;2.38;;
23720;SDS011;42950;52.134;5.578;2023-04-25T08:18:01;8.00;;;2.08;;
23720;SDS011;42950;52.134;5.578;2023-04-25T08:20:26;9.38;;;1.92;;
23720;SDS011;42950;52.134;5.578;2023-04-25T08:22:52;9.88;;;2.00;;
23720;SDS011;42950;52.134;5.578;2023-04-25T08:25:18;9.73;;;1.80;;
23720;SDS011;42950;52.134;5.578;2023-04-25T08:27:43;12.10;;;1.98;;
23720;SDS011;42950;52.134;5.578;2023-04-25T08:30:09;12.68;;;1.80;;
23720;SDS011;42950;52.134;5.578;2023-04-25T08:32:35;15.88;;;2.00;;
23720;SDS011;42950;52.134;5.578;2023-04-25T08:35:03;8.73;;;2.00;;
23720;SDS011;42950;52.134;5.578;2023-04-25T08:37:28;12.70;;;2.38;;
23720;SDS011;42950;52.134;5.578;2023-04-25T08:39:54;8.45;;;1.88;;
23720;SDS011;42950;52.134;5.578;2023-04-25T08:42:21;7.72;;;2.08;;
23720;SDS011;42950;52.134;5.578;2023-04-25T08:44:48;10.90;;;2.38;;
23720;SDS011;42950;52.134;5.578;2023-04-25T08:47:14;9.32;;;1.80;;
23720;SDS011;42950;52.134;5.578;2023-04-25T08:49:40;7.75;;;1.73;;
23720;SDS011;42950;52.134;5.578;2023-04-25T08:52:10;7.97;;;1.65;;
23720;SDS011;42950;52.134;5.578;2023-04-25T08:54:37;5.53;;;1.30;;
23720;SDS011;42950;52.134;5.578;2023-04-25T08:57:09;5.10;;;1.30;;
23720;SDS011;42950;52.134;5.578;2023-04-25T08:59:35;8.05;;;1.52;;
23720;SDS011;42950;52.134;5.578;2023-04-25T09:02:02;6.10;;;1.48;;
23720;SDS011;42950;52.134;5.578;2023-04-25T09:04:29;12.40;;;2.08;;
23720;SDS011;42950;52.134;5.578;2023-04-25T09:06:56;5.90;;;1.58;;
23720;SDS011;42950;52.134;5.578;2023-04-25T09:09:21;7.75;;;1.27;;
23720;SDS011;42950;52.134;5.578;2023-04-25T09:11:48;4.72;;;1.15;;
23720;SDS011;42950;52.134;5.578;2023-04-25T09:19:25;8.48;;;1.30;;
23720;SDS011;42950;52.134;5.578;2023-04-25T09:21:56;4.78;;;1.10;;
23720;SDS011;42950;52.134;5.578;2023-04-25T09:26:57;8.73;;;1.58;;
23720;SDS011;42950;52.134;5.578;2023-04-25T09:29:30;6.03;;;1.48;;
23720;SDS011;42950;52.134;5.578;2023-04-25T09:32:10;6.85;;;1.55;;
23720;SDS011;42950;52.134;5.578;2023-04-25T09:34:47;5.55;;;1.10;;
23720;SDS011;42950;52.134;5.578;2023-04-25T09:39:45;4.90;;;1.20;;
23720;SDS011;42950;52.134;5.578;2023-04-25T09:42:12;8.18;;;1.27;;
23720;SDS011;42950;52.134;5.578;2023-04-25T09:44:44;6.85;;;1.20;;
23720;SDS011;42950;52.134;5.578;2023-04-25T09:47:11;5.28;;;1.33;;
23720;SDS011;42950;52.134;5.578;2023-04-25T09:49:42;5.63;;;1.30;;
23720;SDS011;42950;52.134;5.578;2023-04-25T09:52:08;6.00;;;1.23;;
23720;SDS011;42950;52.134;5.578;2023-04-25T09:54:38;6.65;;;1.27;;
23720;SDS011;42950;52.134;5.578;2023-04-25T09:57:13;6.38;;;1.13;;
23720;SDS011;42950;52.134;5.578;2023-04-25T09:59:45;4.55;;;1.08;;
23720;SDS011;42950;52.134;5.578;2023-04-25T10:02:13;4.63;;;1.00;;
23720;SDS011;42950;52.134;5.578;2023-04-25T10:04:40;5.05;;;1.25;;
23720;SDS011;42950;52.134;5.578;2023-04-25T10:07:07;6.90;;;1.45;;
23720;SDS011;42950;52.134;5.578;2023-04-25T10:09:34;9.82;;;1.00;;
23720;SDS011;42950;52.134;5.578;2023-04-25T10:12:02;6.75;;;1.38;;
23720;SDS011;42950;52.134;5.578;2023-04-25T10:14:29;5.22;;;1.38;;
23720;SDS011;42950;52.134;5.578;2023-04-25T10:16:56;5.68;;;1.15;;
23720;SDS011;42950;52.134;5.578;2023-04-25T10:19:23;7.35;;;1.30;;
23720;SDS011;42950;52.134;5.578;2023-04-25T10:21:51;5.18;;;1.10;;
23720;SDS011;42950;52.134;5.578;2023-04-25T10:24:28;6.03;;;1.27;;
23720;SDS011;42950;52.134;5.578;2023-04-25T10:26:53;6.18;;;1.10;;
23720;SDS011;42950;52.134;5.578;2023-04-25T10:29:22;4.95;;;1.23;;
23720;SDS011;42950;52.134;5.578;2023-04-25T10:31:48;7.82;;;1.23;;
23720;SDS011;42950;52.134;5.578;2023-04-25T10:34:15;9.52;;;1.60;;
23720;SDS011;42950;52.134;5.578;2023-04-25T10:36:41;2.20;;;0.80;;
23720;SDS011;42950;52.134;5.578;2023-04-25T10:39:07;5.75;;;1.40;;
23720;SDS011;42950;52.134;5.578;2023-04-25T10:44:27;6.18;;;1.40;;
23720;SDS011;42950;52.134;5.578;2023-04-25T10:46:57;5.43;;;1.25;;
23720;SDS011;42950;52.134;5.578;2023-04-25T10:49:31;5.40;;;1.25;;
23720;SDS011;42950;52.134;5.578;2023-04-25T10:54:51;6.40;;;1.40;;
23720;SDS011;42950;52.134;5.578;2023-04-25T11:00:00;5.30;;;1.13;;
23720;SDS011;42950;52.134;5.578;2023-04-25T11:02:30;4.03;;;1.15;;
23720;SDS011;42950;52.134;5.578;2023-04-25T11:04:56;3.60;;;1.20;;
23720;SDS011;42950;52.134;5.578;2023-04-25T11:09:58;4.40;;;1.05;;
23720;SDS011;42950;52.134;5.578;2023-04-25T11:12:27;10.88;;;1.48;;
23720;SDS011;42950;52.134;5.578;2023-04-25T11:15:03;3.72;;;0.90;;
23720;SDS011;42950;52.134;5.578;2023-04-25T11:17:30;7.43;;;1.35;;
23720;SDS011;42950;52.134;5.578;2023-04-25T11:19:55;5.53;;;1.35;;
23720;SDS011;42950;52.134;5.578;2023-04-25T11:22:22;4.97;;;1.17;;
23720;SDS011;42950;52.134;5.578;2023-04-25T11:24:47;4.43;;;1.00;;
23720;SDS011;42950;52.134;5.578;2023-04-25T11:27:13;4.65;;;1.42;;
23720;SDS011;42950;52.134;5.578;2023-04-25T11:29:39;6.18;;;1.33;;
23720;SDS011;42950;52.134;5.578;2023-04-25T11:32:05;7.32;;;1.42;;
23720;SDS011;42950;52.134;5.578;2023-04-25T11:34:32;9.48;;;1.92;;
23720;SDS011;42950;52.134;5.578;2023-04-25T11:36:59;7.70;;;1.77;;
23720;SDS011;42950;52.134;5.578;2023-04-25T11:39:26;8.90;;;1.40;;
23720;SDS011;42950;52.134;5.578;2023-04-25T11:41:53;5.43;;;1.33;;
23720;SDS011;42950;52.134;5.578;2023-04-25T11:44:19;7.75;;;1.45;;
23720;SDS011;42950;52.134;5.578;2023-04-25T11:46:45;7.00;;;1.33;;
23720;SDS011;42950;52.134;5.578;2023-04-25T11:49:11;8.38;;;1.48;;
23720;SDS011;42950;52.134;5.578;2023-04-25T11:51:38;6.55;;;1.60;;
23720;SDS011;42950;52.134;5.578;2023-04-25T11:54:04;5.88;;;1.33;;
23720;SDS011;42950;52.134;5.578;2023-04-25T11:56:30;13.77;;;1.80;;
23720;SDS011;42950;52.134;5.578;2023-04-25T11:58:58;7.03;;;1.13;;
23720;SDS011;42950;52.134;5.578;2023-04-25T12:01:25;5.88;;;1.13;;
23720;SDS011;42950;52.134;5.578;2023-04-25T12:03:51;5.80;;;1.30;;
23720;SDS011;42950;52.134;5.578;2023-04-25T12:06:17;7.65;;;1.67;;
23720;SDS011;42950;52.134;5.578;2023-04-25T12:08:59;8.32;;;1.30;;
23720;SDS011;42950;52.134;5.578;2023-04-25T12:11:25;5.78;;;1.15;;
23720;SDS011;42950;52.134;5.578;2023-04-25T12:13:51;6.90;;;1.23;;
23720;SDS011;42950;52.134;5.578;2023-04-25T12:16:18;7.88;;;1.27;;
23720;SDS011;42950;52.134;5.578;2023-04-25T12:18:43;9.13;;;1.40;;
23720;SDS011;42950;52.134;5.578;2023-04-25T12:21:09;7.47;;;1.70;;
23720;SDS011;42950;52.134;5.578;2023-04-25T12:23:34;3.92;;;1.17;;
23720;SDS011;42950;52.134;5.578;2023-04-25T12:26:04;7.03;;;1.20;;
23720;SDS011;42950;52.134;5.578;2023-04-25T12:28:31;6.80;;;1.50;;
23720;SDS011;42950;52.134;5.578;2023-04-25T12:31:04;6.43;;;1.38;;
23720;SDS011;42950;52.134;5.578;2023-04-25T12:33:37;9.57;;;1.73;;
23720;SDS011;42950;52.134;5.578;2023-04-25T12:36:05;6.80;;;1.20;;
23720;SDS011;42950;52.134;5.578;2023-04-25T12:38:36;3.88;;;0.90;;
23720;SDS011;42950;52.134;5.578;2023-04-25T12:41:03;2.28;;;0.80;;
23720;SDS011;42950;52.134;5.578;2023-04-25T12:43:29;5.70;;;1.45;;
23720;SDS011;42950;52.134;5.578;2023-04-25T12:45:55;6.60;;;1.40;;
23720;SDS011;42950;52.134;5.578;2023-04-25T12:48:21;6.72;;;1.33;;
23720;SDS011;42950;52.134;5.578;2023-04-25T12:50:47;8.55;;;1.60;;
23720;SDS011;42950;52.134;5.578;2023-04-25T12:53:15;5.75;;;1.00;;
23720;SDS011;42950;52.134;5.578;2023-04-25T12:55:44;2.50;;;0.80;;
23720;SDS011;42950;52.134;5.578;2023-04-25T12:58:11;4.72;;;1.02;;
23720;SDS011;42950;52.134;5.578;2023-04-25T13:00:41;3.47;;;1.00;;
23720;SDS011;42950;52.134;5.578;2023-04-25T13:03:08;3.92;;;0.82;;
23720;SDS011;42950;52.134;5.578;2023-04-25T13:05:34;4.53;;;0.90;;
23720;SDS011;42950;52.134;5.578;2023-04-25T13:08:00;2.50;;;0.95;;
23720;SDS011;42950;52.134;5.578;2023-04-25T13:10:26;4.03;;;0.90;;
23720;SDS011;42950;52.134;5.578;2023-04-25T13:12:51;3.10;;;0.80;;
23720;SDS011;42950;52.134;5.578;2023-04-25T13:15:17;6.47;;;1.17;;
23720;SDS011;42950;52.134;5.578;2023-04-25T13:17:43;4.82;;;1.08;;
23720;SDS011;42950;52.134;5.578;2023-04-25T13:20:08;3.75;;;1.15;;
23720;SDS011;42950;52.134;5.578;2023-04-25T13:22:35;3.58;;;0.98;;
23720;SDS011;42950;52.134;5.578;2023-04-25T13:25:03;4.70;;;0.90;;
23720;SDS011;42950;52.134;5.578;2023-04-25T13:27:29;2.60;;;0.85;;
23720;SDS011;42950;52.134;5.578;2023-04-25T13:29:55;6.80;;;1.20;;
23720;SDS011;42950;52.134;5.578;2023-04-25T13:32:21;8.75;;;1.73;;
23720;SDS011;42950;52.134;5.578;2023-04-25T13:34:46;6.13;;;1.20;;
23720;SDS011;42950;52.134;5.578;2023-04-25T13:37:12;5.20;;;1.23;;
23720;SDS011;42950;52.134;5.578;2023-04-25T13:39:37;7.20;;;1.33;;
23720;SDS011;42950;52.134;5.578;2023-04-25T13:42:03;5.57;;;1.63;;
23720;SDS011;42950;52.134;5.578;2023-04-25T13:44:28;4.50;;;1.55;;
23720;SDS011;42950;52.134;5.578;2023-04-25T13:46:54;5.28;;;1.77;;
23720;SDS011;42950;52.134;5.578;2023-04-25T13:49:20;8.02;;;1.60;;
23720;SDS011;42950;52.134;5.578;2023-04-25T13:51:45;5.43;;;1.33;;
23720;SDS011;42950;52.134;5.578;2023-04-25T13:54:11;11.90;;;1.70;;
23720;SDS011;42950;52.134;5.578;2023-04-25T13:56:36;8.55;;;1.20;;
23720;SDS011;42950;52.134;5.578;2023-04-25T13:59:02;8.35;;;1.50;;
23720;SDS011;42950;52.134;5.578;2023-04-25T14:01:27;4.30;;;1.15;;
23720;SDS011;42950;52.134;5.578;2023-04-25T14:03:55;5.28;;;1.33;;
23720;SDS011;42950;52.134;5.578;2023-04-25T14:06:21;6.90;;;1.00;;
23720;SDS011;42950;52.134;5.578;2023-04-25T14:08:49;3.92;;;1.25;;
23720;SDS011;42950;52.134;5.578;2023-04-25T14:11:15;4.75;;;1.60;;
23720;SDS011;42950;52.134;5.578;2023-04-25T14:13:43;5.93;;;1.27;;
23720;SDS011;42950;52.134;5.578;2023-04-25T14:16:09;3.90;;;1.10;;
23720;SDS011;42950;52.134;5.578;2023-04-25T14:18:35;3.55;;;1.02;;
23720;SDS011;42950;52.134;5.578;2023-04-25T14:21:00;8.98;;;1.45;;
23720;SDS011;42950;52.134;5.578;2023-04-25T14:23:26;5.35;;;1.00;;
23720;SDS011;42950;52.134;5.578;2023-04-25T14:25:51;6.72;;;1.33;;
23720;SDS011;42950;52.134;5.578;2023-04-25T14:28:17;9.13;;;1.42;;
23720;SDS011;42950;52.134;5.578;2023-04-25T14:30:43;6.80;;;1.70;;
23720;SDS011;42950;52.134;5.578;2023-04-25T14:33:08;8.60;;;1.95;;
23720;SDS011;42950;52.134;5.578;2023-04-25T14:35:35;7.68;;;1.40;;
23720;SDS011;42950;52.134;5.578;2023-04-25T14:38:00;4.50;;;1.35;;
23720;SDS011;42950;52.134;5.578;2023-04-25T14:40:26;5.90;;;1.30;;
23720;SDS011;42950;52.134;5.578;2023-04-25T14:42:51;4.03;;;1.30;;
23720;SDS011;42950;52.134;5.578;2023-04-25T14:45:18;6.03;;;1.10;;
23720;SDS011;42950;52.134;5.578;2023-04-25T14:47:44;9.00;;;2.03;;
23720;SDS011;42950;52.134;5.578;2023-04-25T14:50:10;8.00;;;1.70;;
23720;SDS011;42950;52.134;5.578;2023-04-25T14:52:35;6.28;;;1.52;;
23720;SDS011;42950;52.134;5.578;2023-04-25T14:55:01;8.57;;;1.73;;
23720;SDS011;42950;52.134;5.578;2023-04-25T14:57:30;6.30;;;1.33;;